createdAt,value
2023-03-11T00:04:01.740Z,97518.86
2023-03-11T00:09:05.198Z,97512.31
2023-03-11T00:14:08.061Z,97511.69
2023-03-11T00:19:11.291Z,97508.08
2023-03-11T00:24:14.114Z,97497.16
2023-03-11T00:29:16.886Z,97492.63
2023-03-11T00:34:20.056Z,97500.55
2023-03-11T00:39:23.405Z,97504.84
2023-03-11T00:44:26.242Z,97482.70
2023-03-11T00:49:28.997Z,97473.82
2023-03-11T00:54:31.756Z,97479.77
2023-03-11T00:59:36.308Z,97473.03
2023-03-11T01:04:39.061Z,97466.10
2023-03-11T01:09:41.873Z,97453.59
2023-03-11T01:14:44.660Z,97441.34
2023-03-11T01:19:48.470Z,97427.39
2023-03-11T01:24:51.253Z,97429.95
2023-03-11T01:29:54.418Z,97432.48
2023-03-11T01:34:57.152Z,97429.44
2023-03-11T01:39:59.974Z,97422.73
2023-03-11T01:45:02.774Z,97416.33
2023-03-11T01:50:11.006Z,97413.58
2023-03-11T01:55:17.439Z,97404.70
2023-03-11T02:00:20.465Z,97401.89
2023-03-11T02:05:25.217Z,97395.38
2023-03-11T02:10:28.049Z,97390.23
2023-03-11T02:15:30.810Z,97395.13
2023-03-11T02:21:03.146Z,97407.14
2023-03-11T02:26:37.640Z,97415.88
2023-03-11T02:31:43.224Z,97405.27
2023-03-11T02:36:46.293Z,97403.28
2023-03-11T02:41:49.124Z,97402.77
2023-03-11T02:46:53.410Z,97415.98
2023-03-11T02:51:56.197Z,97410.87
2023-03-11T02:56:59.023Z,97413.58
2023-03-11T03:02:01.764Z,97406.70
2023-03-11T03:07:04.515Z,97405.84
2023-03-11T03:12:07.765Z,97413.38
2023-03-11T03:17:10.527Z,97411.30
2023-03-11T03:22:13.351Z,97405.90
2023-03-11T03:27:16.155Z,97424.71
2023-03-11T03:32:18.881Z,97438.23
2023-03-11T03:37:21.615Z,97440.98
2023-03-11T03:42:25.318Z,97442.79
2023-03-11T03:47:28.725Z,97439.64
2023-03-11T03:52:31.478Z,97440.02
2023-03-11T03:57:34.202Z,97444.95
2023-03-11T04:02:37.124Z,97446.44
2023-03-11T04:07:40.056Z,97447.40
2023-03-11T04:12:42.790Z,97454.79
2023-03-11T04:17:45.735Z,97459.64
2023-03-11T04:22:48.464Z,97462.73
2023-03-11T04:27:52.639Z,97464.49
2023-03-11T04:32:55.368Z,97466.60
2023-03-11T04:37:58.221Z,97470.38
2023-03-11T04:43:00.932Z,97474.45
2023-03-11T04:48:04.279Z,97468.91
2023-03-11T04:53:06.996Z,97471.34
2023-03-11T04:58:09.729Z,97480.39
2023-03-11T05:03:12.468Z,97485.37
2023-03-11T05:08:15.221Z,97486.55
2023-03-11T05:13:17.921Z,97489.86
2023-03-11T05:18:20.941Z,97492.69
2023-03-11T05:23:23.929Z,97488.66
2023-03-11T05:28:26.651Z,97495.73
2023-03-11T05:33:35.441Z,97510.66
2023-03-11T05:38:38.205Z,97519.58
2023-03-11T05:43:40.917Z,97523.08
2023-03-11T05:48:43.668Z,97529.31
2023-03-11T05:53:48.753Z,97527.66
2023-03-11T05:58:51.527Z,97528.96
2023-03-11T06:03:54.321Z,97536.63
2023-03-11T06:08:57.966Z,97550.92
2023-03-11T06:14:00.753Z,97562.16
2023-03-11T06:19:03.523Z,97574.74
2023-03-11T06:24:07.292Z,97594.28
2023-03-11T06:29:15.046Z,97609.98
2023-03-11T06:34:17.905Z,97615.01
2023-03-11T06:39:20.650Z,97623.75
2023-03-11T06:44:23.356Z,97637.78
2023-03-11T06:49:26.092Z,97644.20
2023-03-11T06:54:28.884Z,97654.05
2023-03-11T06:59:31.668Z,97663.40
2023-03-11T07:04:34.470Z,97675.66
2023-03-11T07:09:37.223Z,97693.39
2023-03-11T07:14:39.947Z,97708.66
2023-03-11T07:19:42.758Z,97717.85
2023-03-11T07:24:48.074Z,97728.38
2023-03-11T07:29:50.860Z,97738.45
2023-03-11T07:34:53.765Z,97750.55
2023-03-11T07:39:56.507Z,97753.14
2023-03-11T07:44:59.197Z,97773.61
2023-03-11T07:50:02.123Z,97771.55
2023-03-11T07:55:05.251Z,97766.14
2023-03-11T08:00:09.165Z,97774.02
2023-03-11T08:05:12.631Z,97787.60
2023-03-11T08:10:15.356Z,97801.39
2023-03-11T08:15:18.155Z,97807.41
2023-03-11T08:20:20.956Z,97811.27
2023-03-11T08:25:23.688Z,97821.69
2023-03-11T08:30:26.530Z,97830.29
2023-03-11T08:35:29.518Z,97832.36
2023-03-11T08:40:32.837Z,97844.64
2023-03-11T08:45:36.005Z,97865.04
2023-03-11T08:50:53.813Z,97879.27
2023-03-11T08:55:57.321Z,97880.60
2023-03-11T09:01:00.580Z,97894.88
2023-03-11T09:06:06.884Z,97906.91
2023-03-11T09:11:11.189Z,97923.76
2023-03-11T09:16:24.622Z,97933.69
2023-03-11T09:21:27.753Z,97943.95
2023-03-11T09:26:31.717Z,97954.47
2023-03-11T09:31:34.633Z,97962.00
2023-03-11T09:36:37.505Z,97978.85
2023-03-11T09:41:59.344Z,97991.70
2023-03-11T09:47:08.680Z,97992.67
2023-03-11T09:53:10.443Z,97999.85
2023-03-11T09:58:25.056Z,98018.90
2023-03-11T10:03:34.878Z,98029.19
2023-03-11T10:08:48.289Z,98045.58
2023-03-11T10:14:24.112Z,98058.63
2023-03-11T10:19:56.488Z,98068.39
2023-03-11T10:25:16.618Z,98080.95
2023-03-11T10:30:30.984Z,98093.90
2023-03-11T10:35:40.559Z,98106.89
2023-03-11T10:40:46.302Z,98120.61
2023-03-11T10:45:51.480Z,98128.66
2023-03-11T10:51:23.743Z,98139.64
2023-03-11T10:56:37.845Z,98150.02
2023-03-11T11:02:04.383Z,98155.50
2023-03-11T11:07:28.546Z,98165.93
2023-03-11T11:12:31.283Z,98178.11
2023-03-11T11:17:34.400Z,98183.66
2023-03-11T11:22:37.665Z,98190.74
2023-03-11T11:27:54.411Z,98200.00
2023-03-11T11:33:16.469Z,98206.19
2023-03-11T11:38:24.772Z,98215.26
2023-03-11T11:44:03.689Z,98228.50
2023-03-11T11:49:32.388Z,98238.31
2023-03-11T11:54:41.781Z,98250.19
2023-03-11T11:59:45.345Z,98251.63
2023-03-11T12:04:56.851Z,98260.30
2023-03-11T12:10:19.784Z,98269.20
2023-03-11T12:15:49.582Z,98279.85
2023-03-11T12:20:58.391Z,98292.64
2023-03-11T12:26:22.198Z,98311.55
2023-03-11T12:31:28.048Z,98313.93
2023-03-11T12:36:34.378Z,98327.54
2023-03-11T12:41:41.972Z,98336.58
2023-03-11T12:46:59.884Z,98340.25
2023-03-11T12:52:08.809Z,98357.03
2023-03-11T12:57:17.643Z,98368.18
2023-03-11T13:02:29.467Z,98379.89
2023-03-11T13:07:42.137Z,98391.79
2023-03-11T13:12:49.888Z,98396.64
2023-03-11T13:18:11.101Z,98408.95
2023-03-11T13:23:13.813Z,98427.06
2023-03-11T13:28:51.917Z,98434.48
2023-03-11T13:33:58.072Z,98448.28
2023-03-11T13:39:38.288Z,98457.80
2023-03-11T13:44:42.021Z,98468.30
2023-03-11T13:49:55.453Z,98480.35
2023-03-11T13:55:03.841Z,98491.19
2023-03-11T14:00:17.115Z,98488.11
2023-03-11T14:05:24.457Z,98497.30
2023-03-11T14:10:30.244Z,98504.61
2023-03-11T14:15:44.385Z,98519.55
2023-03-11T14:20:48.418Z,98527.40
2023-03-11T14:26:02.586Z,98543.23
2023-03-11T14:31:05.530Z,98556.56
2023-03-11T14:36:14.052Z,98567.88
2023-03-11T14:41:16.934Z,98582.03
2023-03-11T14:46:29.953Z,98587.64
2023-03-11T14:51:35.164Z,98595.63
2023-03-11T14:56:44.369Z,98602.63
2023-03-11T15:01:48.592Z,98606.20
2023-03-11T15:06:51.458Z,98621.65
2023-03-11T15:11:59.948Z,98635.02
2023-03-11T15:17:36.467Z,98638.71
2023-03-11T15:22:44.383Z,98644.67
2023-03-11T15:27:47.204Z,98648.73
2023-03-11T15:32:50.843Z,98656.95
2023-03-11T15:38:23.889Z,98673.62
2023-03-11T15:43:42.634Z,98679.84
2023-03-11T15:48:45.303Z,98688.67
2023-03-11T15:53:48.704Z,98697.32
2023-03-11T15:58:53.865Z,98705.52
2023-03-11T16:03:56.651Z,98714.07
2023-03-11T16:08:59.432Z,98725.92
2023-03-11T16:14:02.210Z,98741.33
2023-03-11T16:19:04.954Z,98760.57
2023-03-11T16:24:08.330Z,98772.21
2023-03-11T16:29:19.024Z,98785.17
2023-03-11T16:34:22.570Z,98792.00
2023-03-11T16:39:25.436Z,98805.71
2023-03-11T16:44:28.659Z,98808.57
2023-03-11T16:49:31.441Z,98824.27
2023-03-11T16:54:35.261Z,98836.46
2023-03-11T16:59:37.976Z,98838.66
2023-03-11T17:04:41.080Z,98847.34
2023-03-11T17:09:43.901Z,98857.05
2023-03-11T17:14:46.709Z,98872.84
2023-03-11T17:19:49.708Z,98873.05
2023-03-11T17:24:52.433Z,98882.42
2023-03-11T17:29:55.133Z,98889.63
2023-03-11T17:34:58.273Z,98900.87
2023-03-11T17:40:01.066Z,98907.52
2023-03-11T17:45:03.947Z,98910.23
2023-03-11T17:50:08.180Z,98916.09
2023-03-11T17:55:11.137Z,98924.02
2023-03-11T18:00:15.106Z,98929.74
2023-03-11T18:05:20.827Z,98935.06
2023-03-11T18:10:23.696Z,98941.38
2023-03-11T18:15:26.447Z,98951.48
2023-03-11T18:20:29.157Z,98958.55
2023-03-11T18:25:32.475Z,98962.70
2023-03-11T18:30:38.085Z,98967.74
2023-03-11T18:35:40.810Z,98975.42
2023-03-11T18:40:44.401Z,98986.69
2023-03-11T18:45:47.243Z,98987.42
2023-03-11T18:50:56.078Z,98991.92
2023-03-11T18:56:01.095Z,98991.59
2023-03-11T19:01:09.650Z,98997.92
2023-03-11T19:06:13.581Z,98994.21
2023-03-11T19:11:23.136Z,99002.46
2023-03-11T19:16:26.961Z,99006.85
2023-03-11T19:21:29.719Z,99017.77
2023-03-11T19:26:44.362Z,99026.02
2023-03-11T19:31:47.881Z,99024.89
2023-03-11T19:36:50.618Z,99031.91
2023-03-11T19:41:54.067Z,99040.84
2023-03-11T19:46:56.836Z,99050.49
2023-03-11T19:51:59.588Z,99053.95
2023-03-11T19:57:02.429Z,99053.20
2023-03-11T20:02:06.457Z,99062.87
2023-03-11T20:07:09.189Z,99067.44
2023-03-11T20:12:11.966Z,99066.20
2023-03-11T20:17:14.836Z,99068.98
2023-03-11T20:22:17.827Z,99071.35
2023-03-11T20:27:20.692Z,99075.45
2023-03-11T20:32:23.488Z,99073.76
2023-03-11T20:37:26.318Z,99077.73
2023-03-11T20:42:29.065Z,99078.66
2023-03-11T20:47:32.589Z,99075.36
2023-03-11T20:52:35.885Z,99080.11
2023-03-11T20:57:39.688Z,99085.23
2023-03-11T21:02:43.667Z,99088.99
2023-03-11T21:07:49.050Z,99085.40
2023-03-11T21:12:51.856Z,99088.77
2023-03-11T21:17:54.662Z,99090.56
2023-03-11T21:22:57.351Z,99090.34
2023-03-11T21:28:00.089Z,99086.11
2023-03-11T21:33:03.113Z,99085.86
2023-03-11T21:38:06.023Z,99073.53
2023-03-11T21:43:08.906Z,99081.04
2023-03-11T21:48:13.630Z,99085.75
2023-03-11T21:53:16.368Z,99081.05
2023-03-11T21:58:20.236Z,99080.50
2023-03-11T22:03:23.097Z,99084.65
2023-03-11T22:08:27.034Z,99086.39
2023-03-11T22:13:29.837Z,99089.52
2023-03-11T22:18:32.750Z,99087.73
2023-03-11T22:23:35.612Z,99077.32
2023-03-11T22:28:38.473Z,99070.57
2023-03-11T22:33:41.527Z,99070.16
2023-03-11T22:38:45.990Z,99070.05
2023-03-11T22:43:48.725Z,99068.15
2023-03-11T22:48:51.496Z,99069.04
2023-03-11T22:53:54.188Z,99061.88
2023-03-11T22:58:57.694Z,99063.75
2023-03-11T23:04:00.456Z,99058.62
2023-03-11T23:09:05.214Z,99059.01
2023-03-11T23:14:08.047Z,99051.98
2023-03-11T23:19:12.002Z,99050.86
2023-03-11T23:24:14.745Z,99048.41
2023-03-11T23:29:17.466Z,99043.01
2023-03-11T23:34:20.183Z,99044.91
2023-03-11T23:39:22.874Z,99035.38
2023-03-11T23:44:27.008Z,99026.48
2023-03-11T23:49:29.719Z,99021.42
2023-03-11T23:54:32.433Z,99020.17
2023-03-11T23:59:35.169Z,99024.15
